EDVK/KSF METAR and TAF weather

Enter ICAO airport designator
Station Type Date Time Source
EDVK METAR 2019/04/22 17:50 UTC NOAA

EDVK 221750Z 09015KT CAVOK 16/M02 Q1009


Station Type Date Time Source
EDVK Decoded METAR 2019/04/22 17:50 UTC NOAA

Kassel / Calden, Germany (EDVK) 51-24N 009-23E 283M
Apr 22, 2019 - 01:50 PM EDT / 2019.04.22 1750 UTC
Wind: from the E (090 degrees) at 17 MPH (15 KT):0
Visibility: greater than 7 mile(s):0
Temperature: 60 F (16 C)
Dew Point: 28 F (-2 C)
Relative Humidity: 29%
Pressure (altimeter): 29.80 in. Hg (1009 hPa)
ob: EDVK 221750Z 09015KT CAVOK 16/M02 Q1009
cycle: 18

Station Type Date Time Source
EDVK TAF 2011/03/23 07:09 UTC NOAA

TAF COR EDVK 230655Z 2307/2321 30002KT 3500 BR SCT025 PROB30
TEMPO 2307/2309 1400 BCFG
BECMG 2307/2310 01007KT 8000

Example: see airport list